createdAt,value
2023-07-31T00:01:18.489Z,68.82
2023-07-31T00:03:46.300Z,68.43
2023-07-31T00:06:15.428Z,68.46
2023-07-31T00:08:43.005Z,68.69
2023-07-31T00:11:10.624Z,67.47
2023-07-31T00:13:38.211Z,66.43
2023-07-31T00:16:05.872Z,65.36
2023-07-31T00:18:33.494Z,67.02
2023-07-31T00:21:01.116Z,66.54
2023-07-31T00:23:30.065Z,67.70
2023-07-31T00:25:57.678Z,75.65
2023-07-31T00:28:25.369Z,73.24
2023-07-31T00:30:53.044Z,74.29
2023-07-31T00:33:20.694Z,78.18
2023-07-31T00:35:48.741Z,76.11
2023-07-31T00:38:16.356Z,73.54
2023-07-31T00:40:45.315Z,73.30
2023-07-31T00:43:13.039Z,74.15
2023-07-31T00:45:40.729Z,73.83
2023-07-31T00:48:08.808Z,71.70
2023-07-31T00:50:37.706Z,73.95
2023-07-31T00:53:05.473Z,74.73
2023-07-31T00:55:33.341Z,73.44
2023-07-31T00:58:02.346Z,73.61
2023-07-31T01:00:29.942Z,78.90
2023-07-31T01:02:57.824Z,76.57
2023-07-31T01:05:35.746Z,81.41
2023-07-31T01:08:11.052Z,77.61
2023-07-31T01:10:48.776Z,79.61
2023-07-31T01:13:19.887Z,81.39
2023-07-31T01:15:47.538Z,80.29
2023-07-31T01:18:15.207Z,77.41
2023-07-31T01:20:44.469Z,80.67
2023-07-31T01:23:37.205Z,80.39
2023-07-31T01:26:13.409Z,75.32
2023-07-31T01:28:49.561Z,81.29
2023-07-31T01:31:22.954Z,79.79
2023-07-31T01:33:52.384Z,82.54
2023-07-31T01:36:20.159Z,81.68
2023-07-31T01:38:47.823Z,80.98
2023-07-31T01:41:18.751Z,79.10
2023-07-31T01:43:46.536Z,74.73
2023-07-31T01:46:14.177Z,72.26
2023-07-31T01:48:41.896Z,74.42
2023-07-31T01:51:09.486Z,73.59
2023-07-31T01:53:37.150Z,73.44
2023-07-31T01:56:05.049Z,71.74
2023-07-31T01:58:34.026Z,75.00
2023-07-31T02:01:01.669Z,71.04
2023-07-31T02:03:29.386Z,70.17
2023-07-31T02:05:57.850Z,71.10
2023-07-31T02:08:25.476Z,73.97
2023-07-31T02:10:53.546Z,74.96
2023-07-31T02:13:21.179Z,73.08
2023-07-31T02:15:50.314Z,73.96
2023-07-31T02:18:18.033Z,75.02
2023-07-31T02:20:47.289Z,74.13
2023-07-31T02:23:14.896Z,71.28
2023-07-31T02:25:42.532Z,72.63
2023-07-31T02:28:10.164Z,72.02
2023-07-31T02:30:37.830Z,74.70
2023-07-31T02:33:07.157Z,73.91
2023-07-31T02:35:34.825Z,76.33
2023-07-31T02:38:02.492Z,72.59
2023-07-31T02:40:30.130Z,73.60
2023-07-31T02:42:57.882Z,77.86
2023-07-31T02:45:25.513Z,74.23
2023-07-31T02:47:53.163Z,76.05
2023-07-31T02:50:22.310Z,76.31
2023-07-31T02:52:49.932Z,77.92
2023-07-31T02:55:17.665Z,79.32
2023-07-31T02:57:45.263Z,78.13
2023-07-31T03:00:13.319Z,77.64
2023-07-31T03:02:41.020Z,76.93
2023-07-31T03:05:09.435Z,76.80
2023-07-31T03:07:38.473Z,76.60
2023-07-31T03:10:06.943Z,81.25
2023-07-31T03:12:34.602Z,84.08
2023-07-31T03:15:02.244Z,77.84
2023-07-31T03:17:29.949Z,81.72
2023-07-31T03:19:57.679Z,75.96
2023-07-31T03:22:25.320Z,82.56
2023-07-31T03:24:54.405Z,79.43
2023-07-31T03:27:22.012Z,75.89
2023-07-31T03:29:50.869Z,78.76
2023-07-31T03:32:18.459Z,84.73
2023-07-31T03:34:46.182Z,82.15
2023-07-31T03:37:14.003Z,80.50
2023-07-31T03:39:41.601Z,80.27
2023-07-31T03:42:10.558Z,75.82
2023-07-31T03:44:38.204Z,79.71
2023-07-31T03:47:06.684Z,78.03
2023-07-31T03:49:34.379Z,76.79
2023-07-31T03:52:02.108Z,76.32
2023-07-31T03:54:29.714Z,79.68
2023-07-31T03:56:57.790Z,76.61
2023-07-31T03:59:26.739Z,77.64
2023-07-31T04:01:54.462Z,74.88
2023-07-31T04:04:22.757Z,77.88
2023-07-31T04:06:50.425Z,76.58
2023-07-31T04:09:18.178Z,73.99
2023-07-31T04:11:45.824Z,75.81
2023-07-31T04:14:13.478Z,82.05
2023-07-31T04:16:42.772Z,76.00
2023-07-31T04:19:11.728Z,77.96
2023-07-31T04:21:39.360Z,80.34
2023-07-31T04:24:06.992Z,80.67
2023-07-31T04:26:34.767Z,77.50
2023-07-31T04:29:02.375Z,77.16
2023-07-31T04:31:30.702Z,75.72
2023-07-31T04:33:59.692Z,78.19
2023-07-31T04:36:27.346Z,80.57
2023-07-31T04:38:54.962Z,77.10
2023-07-31T04:41:22.804Z,80.61
2023-07-31T04:43:50.421Z,79.29
2023-07-31T04:46:18.083Z,80.91
2023-07-31T04:48:45.944Z,77.77
2023-07-31T04:51:14.965Z,80.45
2023-07-31T04:53:42.605Z,80.31
2023-07-31T04:56:10.194Z,75.20
2023-07-31T04:58:37.827Z,81.05
2023-07-31T05:01:05.476Z,81.96
2023-07-31T05:03:33.592Z,78.00
2023-07-31T05:06:01.448Z,77.53
2023-07-31T05:08:30.394Z,75.85
2023-07-31T05:10:58.022Z,81.81
2023-07-31T05:13:25.639Z,83.89
2023-07-31T05:15:53.377Z,79.93
2023-07-31T05:18:21.015Z,83.43
2023-07-31T05:20:48.644Z,82.69
2023-07-31T05:23:16.252Z,78.83
2023-07-31T05:25:45.214Z,76.92
2023-07-31T05:28:13.663Z,78.36
2023-07-31T05:30:41.320Z,78.67
2023-07-31T05:33:08.988Z,78.36
2023-07-31T05:35:36.702Z,80.18
2023-07-31T05:38:04.323Z,81.13
2023-07-31T05:40:34.274Z,81.40
2023-07-31T05:43:03.194Z,80.67
2023-07-31T05:45:30.780Z,81.32
2023-07-31T05:47:58.552Z,79.19
2023-07-31T05:50:26.271Z,78.51
2023-07-31T05:52:53.985Z,81.21
2023-07-31T05:55:22.277Z,79.54
2023-07-31T05:57:49.876Z,78.31
2023-07-31T06:00:19.104Z,78.87
2023-07-31T06:02:46.846Z,78.67
2023-07-31T06:05:14.483Z,85.05
2023-07-31T06:07:42.117Z,83.19
2023-07-31T06:10:10.422Z,85.23
2023-07-31T06:12:38.270Z,82.98
2023-07-31T06:15:06.986Z,84.71
2023-07-31T06:17:36.048Z,83.44
2023-07-31T06:20:06.134Z,82.79
2023-07-31T06:22:33.940Z,84.66
2023-07-31T06:25:01.521Z,89.35
2023-07-31T06:27:29.156Z,90.42
2023-07-31T06:29:56.774Z,86.94
2023-07-31T06:32:24.814Z,89.31
2023-07-31T06:34:55.175Z,88.14
2023-07-31T06:37:22.969Z,84.21
2023-07-31T06:39:50.565Z,86.69
2023-07-31T06:42:18.171Z,83.68
2023-07-31T06:44:45.789Z,85.97
2023-07-31T06:47:13.483Z,82.53
2023-07-31T06:49:41.206Z,83.37
2023-07-31T06:52:10.737Z,83.42
2023-07-31T06:54:38.336Z,84.16
2023-07-31T06:57:06.647Z,82.55
2023-07-31T06:59:34.250Z,81.43
2023-07-31T07:02:03.692Z,83.69
2023-07-31T07:04:32.658Z,82.45
2023-07-31T07:07:00.220Z,79.10
2023-07-31T07:09:29.174Z,77.68
2023-07-31T07:11:56.767Z,80.45
2023-07-31T07:14:24.406Z,78.84
2023-07-31T07:16:53.177Z,79.10
2023-07-31T07:19:20.897Z,82.22
2023-07-31T07:21:48.481Z,84.83
2023-07-31T07:24:16.138Z,78.95
2023-07-31T07:26:45.057Z,80.55
2023-07-31T07:29:12.666Z,79.11
2023-07-31T07:31:40.437Z,79.60
2023-07-31T07:34:08.048Z,79.83
2023-07-31T07:36:35.652Z,78.92
2023-07-31T07:39:03.321Z,82.08
2023-07-31T07:41:30.915Z,80.84
2023-07-31T07:43:59.836Z,80.97
2023-07-31T07:46:27.528Z,83.18
2023-07-31T07:48:55.148Z,81.99
2023-07-31T07:51:22.734Z,81.32
2023-07-31T07:53:50.333Z,81.59
2023-07-31T07:56:17.933Z,83.02
2023-07-31T07:58:45.608Z,82.12
2023-07-31T08:01:14.621Z,83.48
2023-07-31T08:03:42.278Z,82.69
2023-07-31T08:06:10.428Z,82.55
2023-07-31T08:08:38.301Z,81.71
2023-07-31T08:11:06.226Z,82.25
2023-07-31T08:13:33.834Z,82.02
2023-07-31T08:16:01.465Z,82.86
2023-07-31T08:18:30.441Z,82.17
2023-07-31T08:20:58.054Z,81.62
2023-07-31T08:23:25.755Z,81.78
2023-07-31T08:25:53.346Z,81.75
2023-07-31T08:28:21.064Z,81.88
2023-07-31T08:30:48.844Z,80.96
2023-07-31T08:33:16.546Z,81.94
2023-07-31T08:35:45.528Z,81.75
2023-07-31T08:38:14.310Z,81.34
2023-07-31T08:40:41.980Z,81.13
2023-07-31T08:43:10.997Z,81.36
2023-07-31T08:45:39.308Z,81.17
2023-07-31T08:48:07.886Z,81.63
2023-07-31T08:50:35.737Z,81.71
2023-07-31T08:53:04.717Z,81.67
2023-07-31T08:55:33.656Z,81.34
2023-07-31T08:58:03.128Z,81.34
2023-07-31T09:00:32.028Z,81.23
2023-07-31T09:03:03.297Z,81.01
2023-07-31T09:05:32.680Z,80.54
2023-07-31T09:08:00.507Z,80.79
2023-07-31T09:10:29.539Z,80.42
2023-07-31T09:12:57.861Z,80.01
2023-07-31T09:15:36.740Z,80.13
2023-07-31T09:18:08.068Z,80.60
2023-07-31T09:20:35.846Z,80.60
2023-07-31T09:23:10.791Z,80.79
2023-07-31T09:25:40.804Z,81.06
2023-07-31T09:28:09.998Z,80.71
2023-07-31T09:30:48.961Z,80.62
2023-07-31T09:33:16.682Z,80.58
2023-07-31T09:35:44.948Z,80.71
2023-07-31T09:38:15.217Z,79.76
2023-07-31T09:40:45.799Z,81.06
2023-07-31T09:43:15.336Z,80.53
2023-07-31T09:45:44.751Z,80.43
2023-07-31T09:48:14.134Z,80.34
2023-07-31T09:50:43.802Z,80.43
2023-07-31T09:53:11.937Z,80.57
2023-07-31T09:55:40.602Z,80.46
2023-07-31T09:58:11.484Z,79.94
2023-07-31T10:00:39.602Z,79.40
2023-07-31T10:03:09.269Z,79.58
2023-07-31T10:05:39.836Z,79.37
2023-07-31T10:08:10.161Z,78.68
2023-07-31T10:10:39.679Z,79.08
2023-07-31T10:13:09.580Z,79.34
2023-07-31T10:15:38.272Z,79.40
2023-07-31T10:18:08.511Z,78.82
2023-07-31T10:20:36.495Z,79.17
2023-07-31T10:23:05.118Z,79.12
2023-07-31T10:25:34.108Z,79.24
2023-07-31T10:28:01.997Z,79.41
2023-07-31T10:30:34.577Z,78.85
2023-07-31T10:33:03.383Z,78.04
2023-07-31T10:35:31.167Z,78.13
2023-07-31T10:38:11.679Z,77.71
2023-07-31T10:40:39.496Z,77.50
2023-07-31T10:43:09.589Z,78.46
2023-07-31T10:45:40.763Z,77.82
2023-07-31T10:48:14.185Z,77.46
2023-07-31T10:50:50.359Z,77.49
2023-07-31T10:53:25.402Z,78.34
2023-07-31T10:55:53.481Z,76.76
2023-07-31T10:58:22.635Z,77.06
2023-07-31T11:00:51.951Z,75.87
2023-07-31T11:03:23.427Z,76.77
2023-07-31T11:05:56.074Z,76.38
2023-07-31T11:08:24.384Z,76.42
2023-07-31T11:10:53.612Z,75.27
2023-07-31T11:13:21.185Z,75.88
2023-07-31T11:15:48.991Z,76.65
2023-07-31T11:18:18.057Z,76.14
2023-07-31T11:20:46.364Z,75.68
2023-07-31T11:23:14.644Z,75.68
2023-07-31T11:25:42.995Z,75.28
2023-07-31T11:28:12.306Z,74.32
2023-07-31T11:30:41.007Z,74.41
2023-07-31T11:33:10.096Z,74.86
2023-07-31T11:35:45.764Z,74.94
2023-07-31T11:38:14.120Z,74.92
2023-07-31T11:40:45.509Z,74.75
2023-07-31T11:43:17.424Z,74.86
2023-07-31T11:45:48.612Z,73.33
2023-07-31T11:48:21.892Z,74.31
2023-07-31T11:50:52.706Z,73.42
2023-07-31T11:53:24.480Z,74.48
2023-07-31T11:55:52.614Z,73.32
2023-07-31T11:58:21.543Z,73.40
2023-07-31T12:00:50.661Z,73.21
2023-07-31T12:03:18.556Z,72.74
2023-07-31T12:05:46.889Z,72.67
2023-07-31T12:08:17.152Z,72.56
2023-07-31T12:10:46.411Z,73.19
2023-07-31T12:13:23.426Z,72.85
2023-07-31T12:15:56.327Z,72.85
2023-07-31T12:18:24.326Z,72.56
2023-07-31T12:20:57.144Z,72.10
2023-07-31T12:23:29.724Z,72.17
2023-07-31T12:26:03.954Z,72.27
2023-07-31T12:28:32.196Z,72.22
2023-07-31T12:31:01.276Z,72.41
2023-07-31T12:33:34.214Z,72.10
2023-07-31T12:36:03.729Z,72.86
2023-07-31T12:38:33.034Z,71.57
2023-07-31T12:41:00.611Z,72.31
2023-07-31T12:43:28.577Z,72.35
2023-07-31T12:45:57.392Z,72.14
2023-07-31T12:48:25.038Z,71.91
2023-07-31T12:50:52.715Z,71.86
2023-07-31T12:53:20.383Z,71.32
2023-07-31T12:55:49.693Z,71.44
2023-07-31T12:58:17.427Z,71.02
2023-07-31T13:00:45.147Z,70.73
2023-07-31T13:03:12.990Z,70.64
2023-07-31T13:05:40.790Z,70.43
2023-07-31T13:08:08.702Z,71.60
2023-07-31T13:10:36.320Z,71.30
2023-07-31T13:13:05.744Z,71.28
2023-07-31T13:15:33.472Z,71.37
2023-07-31T13:18:01.214Z,72.08
2023-07-31T13:20:28.957Z,70.44
2023-07-31T13:22:56.540Z,70.86
2023-07-31T13:25:24.199Z,70.77
2023-07-31T13:27:51.866Z,71.33
2023-07-31T13:30:20.906Z,70.73
2023-07-31T13:32:48.537Z,70.64
2023-07-31T13:35:16.148Z,69.19
2023-07-31T13:37:43.776Z,69.80
2023-07-31T13:40:12.496Z,71.23
2023-07-31T13:42:40.193Z,70.69
2023-07-31T13:45:08.548Z,70.76
2023-07-31T13:47:38.451Z,70.37
2023-07-31T13:50:07.227Z,70.32
2023-07-31T13:52:34.870Z,70.96
2023-07-31T13:55:02.501Z,70.35
2023-07-31T13:57:30.532Z,69.87
2023-07-31T13:59:58.213Z,70.15
2023-07-31T14:02:25.884Z,70.44
2023-07-31T14:04:54.907Z,70.36
2023-07-31T14:07:22.524Z,70.18
2023-07-31T14:09:50.115Z,70.29
2023-07-31T14:12:28.260Z,70.26
2023-07-31T14:15:04.011Z,72.59
2023-07-31T14:17:31.754Z,74.44
2023-07-31T14:20:01.187Z,75.21
2023-07-31T14:22:32.143Z,75.48
2023-07-31T14:24:59.772Z,75.86
2023-07-31T14:27:27.647Z,76.61
2023-07-31T14:29:55.358Z,77.32
2023-07-31T14:32:26.639Z,77.99
2023-07-31T14:34:55.632Z,78.49
2023-07-31T14:37:25.158Z,78.26
2023-07-31T14:39:52.982Z,77.90
2023-07-31T14:42:20.832Z,78.20
2023-07-31T14:44:49.184Z,77.76
2023-07-31T14:47:16.803Z,77.83
2023-07-31T14:49:44.421Z,78.32
2023-07-31T14:52:12.095Z,79.47
2023-07-31T14:54:41.081Z,78.82
2023-07-31T14:57:08.914Z,79.76
2023-07-31T14:59:36.535Z,79.03
2023-07-31T15:02:04.490Z,79.37
2023-07-31T15:04:34.185Z,79.03
2023-07-31T15:07:01.990Z,78.77
2023-07-31T15:09:29.848Z,78.45
2023-07-31T15:11:59.447Z,78.31
2023-07-31T15:14:28.514Z,78.32
2023-07-31T15:16:56.263Z,78.33
2023-07-31T15:19:24.304Z,77.94
2023-07-31T15:21:52.586Z,77.62
2023-07-31T15:24:21.476Z,77.75
2023-07-31T15:26:49.091Z,77.01
2023-07-31T15:29:20.766Z,76.60
2023-07-31T15:31:48.821Z,76.52
2023-07-31T15:34:17.193Z,75.75
2023-07-31T15:36:44.971Z,75.50
2023-07-31T15:39:12.639Z,73.55
2023-07-31T15:41:40.927Z,75.00
2023-07-31T15:44:08.675Z,74.49
2023-07-31T15:46:37.725Z,73.89
2023-07-31T15:49:05.482Z,73.50
2023-07-31T15:51:33.252Z,73.09
2023-07-31T15:54:00.895Z,73.57
2023-07-31T15:56:28.594Z,72.80
2023-07-31T15:58:58.809Z,73.18
2023-07-31T16:01:26.571Z,72.47
2023-07-31T16:03:55.593Z,73.17
2023-07-31T16:06:23.322Z,73.75
2023-07-31T16:08:51.003Z,72.90
2023-07-31T16:11:18.633Z,73.06
2023-07-31T16:13:46.234Z,73.07
2023-07-31T16:16:13.914Z,73.91
2023-07-31T16:18:41.512Z,73.88
2023-07-31T16:21:10.500Z,73.39
2023-07-31T16:23:38.092Z,73.24
2023-07-31T16:26:05.742Z,73.38
2023-07-31T16:28:33.367Z,73.24
2023-07-31T16:31:01.041Z,73.27
2023-07-31T16:33:28.788Z,73.40
2023-07-31T16:35:56.480Z,73.44
2023-07-31T16:38:25.469Z,73.30
2023-07-31T16:40:53.204Z,73.65
2023-07-31T16:43:20.845Z,73.62
2023-07-31T16:45:48.673Z,73.41
2023-07-31T16:48:16.354Z,73.34
2023-07-31T16:50:43.991Z,73.55
2023-07-31T16:53:11.702Z,73.13
2023-07-31T16:55:40.824Z,73.52
2023-07-31T16:58:08.516Z,73.87
2023-07-31T17:00:36.280Z,73.72
2023-07-31T17:03:05.354Z,73.61
2023-07-31T17:05:33.259Z,73.77
2023-07-31T17:08:00.897Z,73.85
2023-07-31T17:10:28.586Z,73.56
2023-07-31T17:12:57.603Z,73.78
2023-07-31T17:15:25.180Z,73.86
2023-07-31T17:17:55.129Z,73.85
2023-07-31T17:20:22.736Z,74.04
2023-07-31T17:22:50.356Z,74.33
2023-07-31T17:25:19.792Z,74.21
2023-07-31T17:27:50.034Z,74.48
2023-07-31T17:30:20.409Z,74.61
2023-07-31T17:32:48.101Z,74.93
2023-07-31T17:35:16.059Z,75.11
2023-07-31T17:37:43.724Z,74.54
2023-07-31T17:40:12.590Z,74.96
2023-07-31T17:42:40.180Z,74.85
2023-07-31T17:45:08.653Z,75.06
2023-07-31T17:47:37.632Z,75.52
2023-07-31T17:50:05.872Z,75.37
2023-07-31T17:52:36.340Z,75.41
2023-07-31T17:55:04.484Z,75.73
2023-07-31T17:57:32.091Z,75.57
2023-07-31T17:59:59.694Z,75.53
2023-07-31T18:02:27.408Z,75.74
2023-07-31T18:04:56.432Z,75.68
2023-07-31T18:07:24.254Z,75.46
2023-07-31T18:09:51.862Z,76.46
2023-07-31T18:12:19.451Z,75.82
2023-07-31T18:14:47.055Z,75.75
2023-07-31T18:17:15.556Z,75.95
2023-07-31T18:19:43.218Z,75.81
2023-07-31T18:22:12.174Z,76.02
2023-07-31T18:24:39.828Z,75.80
2023-07-31T18:27:07.710Z,75.81
2023-07-31T18:29:36.553Z,76.06
2023-07-31T18:32:04.563Z,75.97
2023-07-31T18:34:32.170Z,75.91
2023-07-31T18:36:59.756Z,75.72
2023-07-31T18:39:28.732Z,75.69
2023-07-31T18:41:56.419Z,75.42
2023-07-31T18:44:24.098Z,75.91
2023-07-31T18:46:51.739Z,75.61
2023-07-31T18:49:19.430Z,75.63
2023-07-31T20:07:20.305Z,81.62
2023-07-31T20:09:47.968Z,82.95
2023-07-31T20:12:15.613Z,83.37
2023-07-31T20:14:43.187Z,81.99
2023-07-31T20:17:10.875Z,81.46
2023-07-31T20:19:38.507Z,81.27
2023-07-31T20:22:06.675Z,85.53
2023-07-31T20:24:35.735Z,85.32
2023-07-31T20:27:03.421Z,84.42
2023-07-31T20:29:30.983Z,82.68
2023-07-31T20:31:58.553Z,81.37
2023-07-31T20:34:26.204Z,85.31
2023-07-31T20:36:53.807Z,85.09
2023-07-31T20:39:21.409Z,83.42
2023-07-31T20:41:51.012Z,85.16
2023-07-31T20:44:18.638Z,80.83
2023-07-31T20:46:46.218Z,81.38
2023-07-31T20:49:13.840Z,82.70
2023-07-31T20:51:44.719Z,83.26
2023-07-31T20:54:13.083Z,82.22
2023-07-31T20:56:41.024Z,79.08
2023-07-31T20:59:10.558Z,82.01
2023-07-31T21:01:38.199Z,81.33
2023-07-31T21:04:06.855Z,85.28
2023-07-31T21:06:34.527Z,83.41
2023-07-31T21:09:02.104Z,82.84
2023-07-31T21:11:29.695Z,85.89
2023-07-31T21:13:59.582Z,83.72
2023-07-31T21:16:28.633Z,84.87
2023-07-31T21:18:56.687Z,80.90
2023-07-31T21:21:24.385Z,85.13
2023-07-31T21:23:52.012Z,85.62
2023-07-31T21:26:19.574Z,84.21
2023-07-31T21:28:47.181Z,86.21
2023-07-31T21:31:16.228Z,84.93
2023-07-31T21:33:45.284Z,82.40
2023-07-31T21:36:13.500Z,84.13
2023-07-31T21:38:41.474Z,83.85
2023-07-31T21:41:09.362Z,85.96
2023-07-31T21:43:37.157Z,86.13
2023-07-31T21:46:04.885Z,84.08
2023-07-31T21:48:32.529Z,83.20
2023-07-31T21:51:02.071Z,84.85
2023-07-31T21:53:29.731Z,80.54
2023-07-31T21:55:57.345Z,81.32
2023-07-31T21:58:25.337Z,81.04
2023-07-31T22:00:53.149Z,82.81
2023-07-31T22:03:21.022Z,81.42
2023-07-31T22:05:48.961Z,82.18
2023-07-31T22:08:18.042Z,84.39
2023-07-31T22:10:45.686Z,83.28
2023-07-31T22:13:13.657Z,83.83
2023-07-31T22:15:41.860Z,83.11
2023-07-31T22:18:09.967Z,81.04
2023-07-31T22:20:40.232Z,82.19
2023-07-31T22:23:08.088Z,82.93
2023-07-31T22:25:37.084Z,81.51
2023-07-31T22:28:20.182Z,83.20
2023-07-31T22:30:49.020Z,85.11
2023-07-31T22:33:17.222Z,88.01
2023-07-31T22:35:45.002Z,82.70
2023-07-31T22:38:12.684Z,80.68
2023-07-31T22:40:41.639Z,82.64
2023-07-31T22:43:09.540Z,85.28
2023-07-31T22:45:37.532Z,88.64
2023-07-31T22:48:05.406Z,87.31
2023-07-31T22:50:33.631Z,88.09
2023-07-31T22:53:01.716Z,86.12
2023-07-31T22:55:29.465Z,84.29
2023-07-31T22:57:58.420Z,82.06
2023-07-31T23:00:26.990Z,87.21
2023-07-31T23:02:54.900Z,85.88
2023-07-31T23:05:22.576Z,86.41
2023-07-31T23:07:50.232Z,85.78
2023-07-31T23:10:18.140Z,86.35
2023-07-31T23:12:45.914Z,85.33
2023-07-31T23:15:15.704Z,85.59
2023-07-31T23:17:43.759Z,86.07
2023-07-31T23:20:11.882Z,84.95
2023-07-31T23:22:39.495Z,83.69
2023-07-31T23:25:10.247Z,85.73
2023-07-31T23:27:37.847Z,87.09
2023-07-31T23:30:06.615Z,87.15
2023-07-31T23:32:35.564Z,85.16
2023-07-31T23:35:03.263Z,84.00
2023-07-31T23:37:30.931Z,86.33
2023-07-31T23:39:58.552Z,88.73
2023-07-31T23:42:26.459Z,87.60
2023-07-31T23:45:05.088Z,89.09
2023-07-31T23:47:37.833Z,89.44
2023-07-31T23:50:06.248Z,89.45
2023-07-31T23:52:35.550Z,91.64
2023-07-31T23:55:03.550Z,91.64
2023-07-31T23:57:31.603Z,87.21
2023-07-31T23:59:59.225Z,89.93
